Time;durP1;ratioP1;P1;durP2;ratioP2;P2;SDS_P1;SDS_P2;PMS_P1;PMS_P2;Temp;Humidity;BMP_temperature;BMP_pressure;BME280_temperature;BME280_humidity;BME280_pressure;Samples;Min_cycle;Max_cycle;Signal;HPM_P1;HPM_P2
2022/05/23 00:01:58;;;;;;;;;;;13.60;99.90;;;;;;5120366;27;19928;-70
2022/05/23 00:04:24;;;;;;;;;;;13.50;99.90;;;;;;5088086;28;19920;-72
2022/05/23 00:06:49;;;;;;;;;;;13.50;99.90;;;;;;5082902;28;19920;-70
2022/05/23 00:09:15;;;;;;;;;;;13.50;99.90;;;;;;5087341;28;19974;-70
2022/05/23 00:11:41;;;;;;;;;;;13.50;99.90;;;;;;5089188;28;19920;-70
2022/05/23 00:14:06;;;;;;;;;;;13.40;99.90;;;;;;5089223;28;19973;-70
2022/05/23 00:16:44;;;;;;;;;;;13.40;99.90;;;;;;5084863;28;19924;-71
2022/05/23 00:19:10;;;;;;;;;;;13.40;99.90;;;;;;5087818;28;19920;-70
2022/05/23 00:21:40;;;;;;;;;;;13.30;99.90;;;;;;5083029;28;20023;-70
2022/05/23 00:24:06;;;;;;;;;;;13.30;99.90;;;;;;5085078;28;19982;-70
2022/05/23 00:26:32;;;;;;;;;;;13.30;99.90;;;;;;5096992;28;19974;-69
2022/05/23 00:28:57;;;;;;;;;;;13.30;99.90;;;;;;5087891;28;19920;-70
2022/05/23 00:31:23;;;;;;;;;;;13.20;99.90;;;;;;5082288;28;19931;-70
2022/05/23 00:36:33;;;;;;;;;;;13.30;99.90;;;;;;5085641;28;19929;-70
2022/05/23 00:38:59;;;;;;;;;;;13.30;99.90;;;;;;5085600;28;20382;-70
2022/05/23 00:44:18;;;;;;;;;;;13.30;99.90;;;;;;5081105;28;19927;-70
2022/05/23 00:46:51;;;;;;;;;;;13.30;99.90;;;;;;5091628;28;20014;-70
2022/05/23 00:49:18;;;;;;;;;;;13.30;99.90;;;;;;5084422;28;19971;-71
2022/05/23 00:51:44;;;;;;;;;;;13.30;99.90;;;;;;5087916;28;19995;-70
2022/05/23 00:54:10;;;;;;;;;;;13.30;99.90;;;;;;5082382;28;20004;-70
2022/05/23 00:56:41;;;;;;;;;;;13.30;99.90;;;;;;5112848;27;19928;-70
2022/05/23 00:59:08;;;;;;;;;;;13.30;99.90;;;;;;5080641;28;19920;-71
2022/05/23 01:01:35;;;;;;;;;;;13.30;99.90;;;;;;5088000;28;19976;-70
2022/05/23 01:04:01;;;;;;;;;;;13.30;99.90;;;;;;5088276;28;20294;-71
2022/05/23 01:06:26;;;;;;;;;;;13.30;99.90;;;;;;5088273;28;19920;-70
2022/05/23 01:08:54;;;;;;;;;;;13.30;99.90;;;;;;5111590;27;19925;-70
2022/05/23 01:11:19;;;;;;;;;;;13.20;99.90;;;;;;5090628;28;19924;-70
2022/05/23 01:13:45;;;;;;;;;;;13.20;99.90;;;;;;5098701;28;19919;-70
2022/05/23 01:16:11;;;;;;;;;;;13.20;99.90;;;;;;5086446;28;20438;-70
2022/05/23 01:18:36;;;;;;;;;;;13.20;99.90;;;;;;5094225;28;19927;-70
2022/05/23 01:21:04;;;;;;;;;;;13.20;99.90;;;;;;5092133;28;20264;-70
2022/05/23 01:23:47;;;;;;;;;;;13.20;99.90;;;;;;5083634;28;19924;-70
2022/05/23 01:26:12;;;;;;;;;;;13.20;99.90;;;;;;5084795;28;19990;-70
2022/05/23 01:28:39;;;;;;;;;;;13.20;99.90;;;;;;5082512;28;20464;-70
2022/05/23 01:31:05;;;;;;;;;;;13.20;99.90;;;;;;5086994;28;20054;-71
2022/05/23 01:33:31;;;;;;;;;;;13.20;99.90;;;;;;5087115;28;20301;-70
2022/05/23 01:35:57;;;;;;;;;;;13.20;99.90;;;;;;5086126;28;19926;-69
2022/05/23 01:38:23;;;;;;;;;;;13.20;99.90;;;;;;5091956;28;19930;-70
2022/05/23 01:40:49;;;;;;;;;;;13.20;99.90;;;;;;5083338;28;19924;-71
2022/05/23 01:43:15;;;;;;;;;;;13.20;99.90;;;;;;5072984;28;19927;-70
2022/05/23 01:45:41;;;;;;;;;;;13.20;99.90;;;;;;5090167;28;19925;-70
2022/05/23 01:48:07;;;;;;;;;;;13.20;99.90;;;;;;5086789;28;20289;-70
2022/05/23 01:50:32;;;;;;;;;;;13.20;99.90;;;;;;5087265;28;19927;-70
2022/05/23 01:52:58;;;;;;;;;;;13.20;99.90;;;;;;5088346;28;19938;-69
2022/05/23 01:55:24;;;;;;;;;;;13.20;99.90;;;;;;5087929;28;19920;-70
2022/05/23 01:57:49;;;;;;;;;;;13.20;99.90;;;;;;5065891;28;19928;-71
2022/05/23 02:03:00;;;;;;;;;;;13.10;99.90;;;;;;5077268;28;19939;-70
2022/05/23 02:05:25;;;;;;;;;;;13.10;99.90;;;;;;5084040;28;19920;-70
2022/05/23 02:07:52;;;;;;;;;;;13.10;99.90;;;;;;5087979;28;19926;-70
2022/05/23 02:10:17;;;;;;;;;;;13.00;99.90;;;;;;5093107;28;19930;-70
2022/05/23 02:12:43;;;;;;;;;;;13.00;99.90;;;;;;5091023;28;20002;-70
2022/05/23 02:15:09;;;;;;;;;;;13.00;99.90;;;;;;5088235;28;19927;-70
2022/05/23 02:17:34;;;;;;;;;;;13.00;99.90;;;;;;5111522;28;20015;-69
2022/05/23 02:20:00;;;;;;;;;;;13.00;99.90;;;;;;5082394;28;19963;-70
2022/05/23 02:22:25;;;;;;;;;;;13.00;99.90;;;;;;5086972;28;19924;-70
2022/05/23 02:24:50;;;;;;;;;;;13.00;99.90;;;;;;5087743;28;20275;-69
2022/05/23 02:27:16;;;;;;;;;;;13.00;99.90;;;;;;5085859;28;19920;-70
2022/05/23 02:29:41;;;;;;;;;;;12.90;99.90;;;;;;5083108;28;19920;-70
2022/05/23 02:32:07;;;;;;;;;;;12.90;99.90;;;;;;5091291;28;19920;-69
2022/05/23 02:34:33;;;;;;;;;;;12.90;99.90;;;;;;5085861;28;19920;-69
2022/05/23 02:36:58;;;;;;;;;;;12.80;99.90;;;;;;5091597;28;19920;-69
2022/05/23 02:39:24;;;;;;;;;;;12.90;99.90;;;;;;5090939;28;19920;-70
2022/05/23 02:41:50;;;;;;;;;;;12.80;99.90;;;;;;5089061;28;20320;-69
2022/05/23 02:44:16;;;;;;;;;;;12.80;99.90;;;;;;5091759;28;19927;-69
2022/05/23 02:46:42;;;;;;;;;;;12.80;99.90;;;;;;5090691;28;20103;-69
2022/05/23 02:49:07;;;;;;;;;;;12.80;99.90;;;;;;5083002;28;19974;-69
2022/05/23 02:51:33;;;;;;;;;;;12.80;99.90;;;;;;5087488;28;19931;-69
2022/05/23 02:53:58;;;;;;;;;;;12.80;99.90;;;;;;5084043;28;20041;-69
2022/05/23 02:56:24;;;;;;;;;;;12.80;99.90;;;;;;5084143;28;20199;-69
2022/05/23 02:58:49;;;;;;;;;;;12.80;99.90;;;;;;5090066;28;20028;-69
2022/05/23 03:01:15;;;;;;;;;;;12.80;99.90;;;;;;5085290;28;19943;-69
2022/05/23 03:03:40;;;;;;;;;;;12.80;99.90;;;;;;5079736;28;19946;-69
2022/05/23 03:06:07;;;;;;;;;;;12.80;99.90;;;;;;5086889;28;19966;-69
2022/05/23 03:08:33;;;;;;;;;;;12.80;99.90;;;;;;5100941;27;20395;-69
2022/05/23 03:11:00;;;;;;;;;;;12.80;99.90;;;;;;5104871;28;19969;-68
2022/05/23 03:13:25;;;;;;;;;;;12.80;99.90;;;;;;5090525;28;19920;-68
2022/05/23 03:15:51;;;;;;;;;;;12.80;99.90;;;;;;5113915;27;19965;-69
2022/05/23 03:18:17;;;;;;;;;;;12.80;99.90;;;;;;5111225;27;20260;-68
2022/05/23 03:20:42;;;;;;;;;;;12.80;99.90;;;;;;5094774;28;19963;-68
2022/05/23 03:28:37;;;;;;;;;;;12.80;99.90;;;;;;5094511;28;19972;-68
2022/05/23 03:31:04;;;;;;;;;;;12.80;99.90;;;;;;5088749;28;20022;-69
2022/05/23 03:33:29;;;;;;;;;;;12.70;99.90;;;;;;5087472;28;19926;-68
2022/05/23 03:35:55;;;;;;;;;;;12.70;99.90;;;;;;5094502;28;19920;-69
2022/05/23 03:38:22;;;;;;;;;;;12.70;99.90;;;;;;5087926;28;20010;-68
2022/05/23 03:40:48;;;;;;;;;;;12.70;99.90;;;;;;5109143;27;19935;-68
2022/05/23 03:43:14;;;;;;;;;;;12.70;99.90;;;;;;5093261;28;19924;-68
2022/05/23 03:45:40;;;;;;;;;;;12.70;99.90;;;;;;5089640;28;19946;-68
2022/05/23 03:48:06;;;;;;;;;;;12.70;99.90;;;;;;5084766;28;19928;-68
2022/05/23 03:50:32;;;;;;;;;;;12.70;99.90;;;;;;5086813;28;20238;-69
2022/05/23 03:52:57;;;;;;;;;;;12.70;99.90;;;;;;5086289;28;20018;-69
2022/05/23 03:55:23;;;;;;;;;;;12.70;99.90;;;;;;5083313;28;19920;-68
2022/05/23 03:57:49;;;;;;;;;;;12.70;99.90;;;;;;5091165;28;19926;-69
2022/05/23 04:00:15;;;;;;;;;;;12.70;99.90;;;;;;5079473;28;19955;-69
2022/05/23 04:02:41;;;;;;;;;;;12.70;99.90;;;;;;5085684;28;19928;-69
2022/05/23 04:05:09;;;;;;;;;;;12.70;99.90;;;;;;5092140;28;19951;-70
2022/05/23 04:07:36;;;;;;;;;;;12.70;99.90;;;;;;5101478;28;19920;-69
2022/05/23 04:10:03;;;;;;;;;;;12.60;99.90;;;;;;5101925;28;19927;-69
2022/05/23 04:12:28;;;;;;;;;;;12.60;99.90;;;;;;5105138;28;19927;-69
2022/05/23 04:14:53;;;;;;;;;;;12.60;99.90;;;;;;5089828;28;20306;-70
2022/05/23 04:17:19;;;;;;;;;;;12.60;99.90;;;;;;5075085;28;20228;-69
2022/05/23 04:19:44;;;;;;;;;;;12.70;99.90;;;;;;5099694;27;19992;-69
2022/05/23 04:22:10;;;;;;;;;;;12.60;99.90;;;;;;5077469;28;19928;-69
2022/05/23 04:24:36;;;;;;;;;;;12.60;99.90;;;;;;5088643;28;19920;-70
2022/05/23 04:27:02;;;;;;;;;;;12.70;99.90;;;;;;5098140;28;19928;-69
2022/05/23 04:29:27;;;;;;;;;;;12.70;99.90;;;;;;5104261;27;20052;-69
2022/05/23 04:31:53;;;;;;;;;;;12.70;99.90;;;;;;5097683;28;20046;-69
2022/05/23 04:37:03;;;;;;;;;;;12.80;99.90;;;;;;5105048;27;19927;-70
2022/05/23 04:39:28;;;;;;;;;;;12.90;99.90;;;;;;5105592;27;19928;-69
2022/05/23 04:41:55;;;;;;;;;;;12.90;99.90;;;;;;5088373;28;19949;-69
2022/05/23 04:44:21;;;;;;;;;;;13.00;99.90;;;;;;5087478;28;19924;-69
2022/05/23 04:49:49;;;;;;;;;;;13.10;99.90;;;;;;5088462;28;20370;-69
2022/05/23 04:52:19;;;;;;;;;;;13.20;99.90;;;;;;5104275;27;20045;-69
2022/05/23 04:54:45;;;;;;;;;;;13.30;99.90;;;;;;5108795;27;19986;-69
2022/05/23 04:57:10;;;;;;;;;;;13.30;99.90;;;;;;5090271;28;19963;-68
2022/05/23 04:59:36;;;;;;;;;;;13.40;99.90;;;;;;5089867;28;19942;-70
2022/05/23 05:02:02;;;;;;;;;;;13.40;99.90;;;;;;5094034;28;19924;-69
2022/05/23 05:04:29;;;;;;;;;;;13.50;99.90;;;;;;5093506;28;19924;-69
2022/05/23 05:06:54;;;;;;;;;;;13.50;99.90;;;;;;5094461;28;20351;-69
2022/05/23 05:09:20;;;;;;;;;;;13.50;99.90;;;;;;5094146;28;19927;-68
2022/05/23 05:11:45;;;;;;;;;;;13.60;99.90;;;;;;5091243;28;19965;-68
2022/05/23 05:14:11;;;;;;;;;;;13.60;99.90;;;;;;5088767;28;19938;-68
2022/05/23 05:16:36;;;;;;;;;;;13.70;99.90;;;;;;5084050;28;19927;-69
2022/05/23 05:19:02;;;;;;;;;;;13.70;99.90;;;;;;5062607;28;19967;-69
2022/05/23 05:21:27;;;;;;;;;;;13.80;99.90;;;;;;5078359;28;19939;-69
2022/05/23 05:23:54;;;;;;;;;;;13.90;99.90;;;;;;5100171;28;19924;-69
2022/05/23 05:26:19;;;;;;;;;;;14.00;99.90;;;;;;5086956;28;19928;-69
2022/05/23 05:28:44;;;;;;;;;;;14.10;99.90;;;;;;5085129;28;19920;-70
2022/05/23 05:31:15;;;;;;;;;;;14.20;99.90;;;;;;5089507;28;19923;-69
2022/05/23 05:33:45;;;;;;;;;;;14.40;99.90;;;;;;5088929;28;19924;-70
2022/05/23 05:36:13;;;;;;;;;;;14.50;99.90;;;;;;5089496;28;19923;-69
2022/05/23 05:38:49;;;;;;;;;;;14.60;99.90;;;;;;5114729;28;19927;-70
2022/05/23 05:41:17;;;;;;;;;;;14.60;99.90;;;;;;5076525;28;19920;-70
2022/05/23 05:43:46;;;;;;;;;;;14.60;99.90;;;;;;5088344;28;19923;-69
2022/05/23 05:46:14;;;;;;;;;;;14.70;99.90;;;;;;5080169;28;19924;-69
2022/05/23 05:48:41;;;;;;;;;;;14.70;99.90;;;;;;5087002;28;19999;-69
2022/05/23 05:51:08;;;;;;;;;;;14.80;99.90;;;;;;5079886;28;19977;-68
2022/05/23 05:53:33;;;;;;;;;;;14.80;99.90;;;;;;5102821;28;20011;-69
2022/05/23 05:56:00;;;;;;;;;;;14.90;99.90;;;;;;5106461;28;19967;-68
2022/05/23 05:58:25;;;;;;;;;;;15.10;99.90;;;;;;5085620;28;20020;-69
2022/05/23 06:00:51;;;;;;;;;;;15.20;99.90;;;;;;5104291;28;20035;-69
2022/05/23 06:03:16;;;;;;;;;;;15.30;99.90;;;;;;5069972;28;19925;-69
2022/05/23 06:11:26;;;;;;;;;;;15.60;99.90;;;;;;5105381;28;19931;-69
2022/05/23 06:13:52;;;;;;;;;;;15.80;99.90;;;;;;5082631;28;19931;-69
2022/05/23 06:16:18;;;;;;;;;;;16.00;99.90;;;;;;5093587;28;19947;-71
2022/05/23 06:18:44;;;;;;;;;;;16.00;99.90;;;;;;5092030;28;19928;-70
2022/05/23 06:21:10;;;;;;;;;;;16.10;99.90;;;;;;5092548;28;19920;-69
2022/05/23 06:23:36;;;;;;;;;;;16.20;99.90;;;;;;5092403;28;19926;-69
2022/05/23 06:26:02;;;;;;;;;;;16.20;99.90;;;;;;5087856;28;20031;-71
2022/05/23 06:28:27;;;;;;;;;;;16.30;99.90;;;;;;5108106;27;19924;-70
2022/05/23 06:30:52;;;;;;;;;;;16.30;99.90;;;;;;5072834;28;20003;-70
2022/05/23 06:33:18;;;;;;;;;;;16.40;99.90;;;;;;5072510;28;19973;-69
2022/05/23 06:35:43;;;;;;;;;;;16.60;99.90;;;;;;5072799;28;19920;-69
2022/05/23 06:38:09;;;;;;;;;;;16.70;99.90;;;;;;5074175;28;19920;-69
2022/05/23 06:40:34;;;;;;;;;;;16.90;99.90;;;;;;5091646;28;19920;-69
2022/05/23 06:43:01;;;;;;;;;;;17.10;99.90;;;;;;5087167;28;19928;-71
2022/05/23 06:45:27;;;;;;;;;;;17.20;99.90;;;;;;5075864;28;19928;-71
2022/05/23 06:47:52;;;;;;;;;;;17.40;99.90;;;;;;5106302;28;20462;-71
2022/05/23 06:50:18;;;;;;;;;;;17.40;99.90;;;;;;5102721;27;20271;-69
2022/05/23 06:52:43;;;;;;;;;;;17.60;99.90;;;;;;5108026;27;19946;-70
2022/05/23 06:55:09;;;;;;;;;;;17.60;99.90;;;;;;5087956;28;19927;-70
2022/05/23 06:57:34;;;;;;;;;;;17.70;99.90;;;;;;5090676;28;20363;-70
2022/05/23 07:00:00;;;;;;;;;;;17.80;99.90;;;;;;5088331;28;19924;-70
2022/05/23 07:02:26;;;;;;;;;;;17.90;99.90;;;;;;5091459;28;19954;-70
2022/05/23 07:13:04;;;;;;;;;;;18.20;99.90;;;;;;5091643;28;19950;-69
2022/05/23 07:15:35;;;;;;;;;;;18.30;99.90;;;;;;5088868;28;19919;-70
2022/05/23 07:18:00;;;;;;;;;;;18.30;99.90;;;;;;5062156;28;20218;-70
2022/05/23 07:20:26;;;;;;;;;;;18.40;99.90;;;;;;5090774;28;20375;-69
2022/05/23 07:22:52;;;;;;;;;;;18.50;99.90;;;;;;5090841;28;19956;-70
2022/05/23 07:25:18;;;;;;;;;;;18.60;99.90;;;;;;5091546;28;19920;-69
2022/05/23 07:27:43;;;;;;;;;;;18.80;99.90;;;;;;5092178;28;19972;-70
2022/05/23 07:30:09;;;;;;;;;;;19.00;99.90;;;;;;5091494;28;20405;-70
2022/05/23 07:32:34;;;;;;;;;;;19.10;99.90;;;;;;5090159;28;20382;-70
2022/05/23 07:35:00;;;;;;;;;;;19.20;99.90;;;;;;5126372;27;19932;-70
2022/05/23 07:37:27;;;;;;;;;;;19.20;99.90;;;;;;5089699;28;19924;-70
2022/05/23 07:39:56;;;;;;;;;;;19.30;99.90;;;;;;5090856;28;19924;-69
2022/05/23 07:42:22;;;;;;;;;;;19.30;99.90;;;;;;5091149;28;19927;-69
2022/05/23 07:44:48;;;;;;;;;;;19.40;99.90;;;;;;5075908;28;20375;-70
2022/05/23 07:47:13;;;;;;;;;;;19.50;99.90;;;;;;5105360;28;19921;-70
2022/05/23 07:49:39;;;;;;;;;;;19.50;99.90;;;;;;5108937;27;19928;-70
2022/05/23 07:52:04;;;;;;;;;;;19.60;99.90;;;;;;5085453;28;20311;-70
2022/05/23 08:02:43;;;;;;;;;;;19.90;99.90;;;;;;5071342;28;20007;-71
2022/05/23 08:05:09;;;;;;;;;;;20.00;99.90;;;;;;5071055;28;19920;-71
2022/05/23 08:07:34;;;;;;;;;;;20.10;99.90;;;;;;5081400;28;19924;-70
2022/05/23 08:10:00;;;;;;;;;;;20.20;99.90;;;;;;5088564;28;20347;-70
2022/05/23 08:12:27;;;;;;;;;;;20.30;99.90;;;;;;5090014;28;19924;-70
2022/05/23 08:14:52;;;;;;;;;;;20.40;99.90;;;;;;5090108;28;19920;-70
2022/05/23 08:17:18;;;;;;;;;;;20.50;99.90;;;;;;5090382;28;19927;-70
2022/05/23 08:19:43;;;;;;;;;;;20.50;99.90;;;;;;5090692;28;19920;-70
2022/05/23 08:22:09;;;;;;;;;;;20.60;99.90;;;;;;5071000;28;20168;-71
2022/05/23 08:24:35;;;;;;;;;;;20.70;99.90;;;;;;5105612;28;19920;-70
2022/05/23 08:27:00;;;;;;;;;;;20.80;99.90;;;;;;5124306;27;20409;-70
2022/05/23 08:29:26;;;;;;;;;;;20.90;99.90;;;;;;5090072;28;19924;-70
2022/05/23 08:31:52;;;;;;;;;;;21.00;99.90;;;;;;5091188;28;19923;-71
2022/05/23 08:34:17;;;;;;;;;;;21.10;99.90;;;;;;5081971;28;20398;-71
2022/05/23 08:36:43;;;;;;;;;;;21.20;99.90;;;;;;5086369;28;19926;-70
2022/05/23 08:39:09;;;;;;;;;;;21.30;99.90;;;;;;5090486;28;19924;-71
2022/05/23 08:41:37;;;;;;;;;;;21.40;99.90;;;;;;5090657;28;20290;-71
2022/05/23 08:44:16;;;;;;;;;;;21.40;99.90;;;;;;5075550;28;19933;-71
2022/05/23 08:47:00;;;;;;;;;;;21.50;99.90;;;;;;5090488;28;19957;-71
2022/05/23 08:49:45;;;;;;;;;;;21.50;99.90;;;;;;5090270;28;19920;-70
2022/05/23 08:52:29;;;;;;;;;;;21.60;99.90;;;;;;5086598;28;19924;-72
2022/05/23 08:55:03;;;;;;;;;;;21.60;99.90;;;;;;5069432;28;19920;-71
2022/05/23 08:57:38;;;;;;;;;;;21.60;99.90;;;;;;5104029;28;19924;-70
2022/05/23 09:00:06;;;;;;;;;;;21.60;99.90;;;;;;5103527;28;19917;-72
2022/05/23 09:02:32;;;;;;;;;;;21.70;99.90;;;;;;5069485;28;20022;-71
2022/05/23 09:05:01;;;;;;;;;;;21.80;99.90;;;;;;5103628;28;19974;-71
2022/05/23 09:07:33;;;;;;;;;;;21.90;99.90;;;;;;5108362;27;19920;-71
2022/05/23 09:10:01;;;;;;;;;;;22.00;99.90;;;;;;5074939;28;20382;-71
2022/05/23 09:12:27;;;;;;;;;;;22.20;99.90;;;;;;5098851;28;19927;-71
2022/05/23 09:14:52;;;;;;;;;;;22.30;99.90;;;;;;5085041;28;19924;-71
2022/05/23 09:17:26;;;;;;;;;;;22.30;99.90;;;;;;5088449;28;20260;-71
2022/05/23 09:19:55;;;;;;;;;;;22.30;99.90;;;;;;5089689;28;19920;-72
2022/05/23 09:22:24;;;;;;;;;;;22.30;99.90;;;;;;5107903;27;19931;-72
2022/05/23 09:24:55;;;;;;;;;;;22.30;99.90;;;;;;5082261;28;20421;-72
2022/05/23 09:27:24;;;;;;;;;;;22.40;99.90;;;;;;5103156;28;19953;-71
2022/05/23 09:29:51;;;;;;;;;;;22.40;99.90;;;;;;5116647;28;19927;-71
2022/05/23 09:32:17;;;;;;;;;;;22.40;99.90;;;;;;5086497;28;19931;-72
2022/05/23 09:35:00;;;;;;;;;;;22.50;99.90;;;;;;5087510;28;19920;-72
2022/05/23 09:37:46;;;;;;;;;;;22.50;99.90;;;;;;5088441;28;19968;-71
2022/05/23 09:40:21;;;;;;;;;;;22.50;99.90;;;;;;5088388;28;19920;-71
2022/05/23 09:48:17;;;;;;;;;;;22.60;99.90;;;;;;5106818;28;20283;-71
2022/05/23 09:50:52;;;;;;;;;;;22.70;99.90;;;;;;5106248;28;19963;-71
2022/05/23 09:53:21;;;;;;;;;;;22.90;99.90;;;;;;5106710;28;19920;-72
2022/05/23 09:55:47;;;;;;;;;;;23.00;99.90;;;;;;5106207;27;19963;-71
2022/05/23 09:58:21;;;;;;;;;;;23.10;99.90;;;;;;5117646;27;20317;-71
2022/05/23 10:00:57;;;;;;;;;;;23.20;99.90;;;;;;5091476;28;19920;-72
2022/05/23 10:03:24;;;;;;;;;;;23.20;99.90;;;;;;5092324;28;19935;-71
2022/05/23 10:06:00;;;;;;;;;;;23.30;99.90;;;;;;5091980;28;20012;-71
2022/05/23 10:08:37;;;;;;;;;;;23.40;99.90;;;;;;5092066;28;19921;-71
2022/05/23 10:11:07;;;;;;;;;;;23.50;99.90;;;;;;5092780;28;20289;-70
2022/05/23 10:13:35;;;;;;;;;;;23.60;99.90;;;;;;5090688;28;20010;-71
2022/05/23 10:16:17;;;;;;;;;;;23.80;99.90;;;;;;5092449;28;19947;-70
2022/05/23 10:18:49;;;;;;;;;;;24.00;99.90;;;;;;5092139;28;19974;-70
2022/05/23 10:21:34;;;;;;;;;;;24.10;99.90;;;;;;5092144;28;19920;-71
2022/05/23 10:24:04;;;;;;;;;;;24.10;99.90;;;;;;5092745;28;19924;-72
2022/05/23 10:26:33;;;;;;;;;;;24.10;99.90;;;;;;5092787;28;19924;-70
2022/05/23 10:29:01;;;;;;;;;;;24.10;99.90;;;;;;5086224;28;19920;-70
2022/05/23 10:31:32;;;;;;;;;;;24.20;99.90;;;;;;5113529;27;19920;-71
2022/05/23 10:34:04;;;;;;;;;;;24.40;99.90;;;;;;5091350;28;19971;-71
2022/05/23 10:36:30;;;;;;;;;;;24.40;99.90;;;;;;5090177;28;19920;-70
2022/05/23 10:42:07;;;;;;;;;;;24.60;99.90;;;;;;5085183;28;19954;-70
2022/05/23 10:44:42;;;;;;;;;;;24.60;99.90;;;;;;5083777;28;20276;-72
2022/05/23 10:47:07;;;;;;;;;;;24.50;99.90;;;;;;5074821;28;19985;-71
2022/05/23 10:49:42;;;;;;;;;;;24.50;99.90;;;;;;5070197;28;19924;-71
2022/05/23 10:52:24;;;;;;;;;;;24.50;99.90;;;;;;5081928;28;19928;-70
2022/05/23 10:55:08;;;;;;;;;;;24.60;99.90;;;;;;5103771;28;19920;-71
2022/05/23 10:57:58;;;;;;;;;;;24.60;99.90;;;;;;5078984;28;19924;-70
2022/05/23 11:00:31;;;;;;;;;;;24.70;99.90;;;;;;5070726;28;19973;-71
2022/05/23 11:03:18;;;;;;;;;;;24.80;99.90;;;;;;5106036;28;19925;-70
2022/05/23 11:05:56;;;;;;;;;;;24.80;99.90;;;;;;5070950;28;19924;-72
2022/05/23 11:08:46;;;;;;;;;;;24.70;99.90;;;;;;5070734;28;20383;-72
2022/05/23 11:11:25;;;;;;;;;;;24.50;99.90;;;;;;5062763;28;19930;-73
2022/05/23 11:14:00;;;;;;;;;;;24.40;99.90;;;;;;5071187;28;20091;-72
2022/05/23 11:16:31;;;;;;;;;;;24.30;99.90;;;;;;5070531;28;19927;-72
2022/05/23 11:19:14;;;;;;;;;;;24.20;99.90;;;;;;5104567;28;19920;-71
2022/05/23 11:21:45;;;;;;;;;;;24.20;99.90;;;;;;5104686;28;19928;-71
2022/05/23 11:24:17;;;;;;;;;;;24.20;99.90;;;;;;5104386;28;19928;-71
2022/05/23 11:26:45;;;;;;;;;;;24.20;99.90;;;;;;5104756;28;20042;-70
2022/05/23 11:35:06;;;;;;;;;;;24.30;99.90;;;;;;5092313;28;19969;-71
2022/05/23 11:37:49;;;;;;;;;;;24.40;99.90;;;;;;5083050;28;21926;-71
2022/05/23 11:40:28;;;;;;;;;;;24.50;99.90;;;;;;5089907;28;19920;-71
2022/05/23 11:43:01;;;;;;;;;;;24.70;99.90;;;;;;5091915;28;19928;-71
2022/05/23 11:48:40;;;;;;;;;;;24.80;99.90;;;;;;5086124;28;20011;-71
2022/05/23 11:51:09;;;;;;;;;;;24.70;99.90;;;;;;5071604;28;20020;-70
2022/05/23 11:53:37;;;;;;;;;;;24.40;99.90;;;;;;5071289;28;19971;-71
2022/05/23 11:56:10;;;;;;;;;;;24.20;99.90;;;;;;5071430;28;19921;-70
2022/05/23 11:58:49;;;;;;;;;;;24.00;99.90;;;;;;5090714;28;19924;-71
2022/05/23 12:01:19;;;;;;;;;;;23.80;99.90;;;;;;5089460;28;20002;-71
2022/05/23 12:03:49;;;;;;;;;;;23.70;99.90;;;;;;5077206;28;19921;-71
2022/05/23 12:06:16;;;;;;;;;;;23.60;99.90;;;;;;5104820;28;20051;-72
2022/05/23 12:09:01;;;;;;;;;;;23.60;99.90;;;;;;5081271;28;20015;-72
2022/05/23 12:11:53;;;;;;;;;;;23.60;99.90;;;;;;5090847;28;19970;-72
2022/05/23 12:14:28;;;;;;;;;;;23.60;99.90;;;;;;5081793;28;19989;-72
2022/05/23 12:16:56;;;;;;;;;;;23.60;99.90;;;;;;5090846;28;19924;-72
2022/05/23 12:19:27;;;;;;;;;;;23.70;99.90;;;;;;5090520;28;19928;-70
2022/05/23 12:22:11;;;;;;;;;;;23.60;99.90;;;;;;5088624;28;19974;-71
2022/05/23 12:24:55;;;;;;;;;;;23.50;99.90;;;;;;5074202;28;20344;-71
2022/05/23 12:27:26;;;;;;;;;;;23.40;99.90;;;;;;5089417;28;20016;-72
2022/05/23 12:30:12;;;;;;;;;;;23.20;99.90;;;;;;5089940;28;19997;-72
2022/05/23 12:32:38;;;;;;;;;;;23.10;99.90;;;;;;5073942;28;19920;-72
2022/05/23 12:35:05;;;;;;;;;;;22.90;99.90;;;;;;5073185;28;19920;-71
2022/05/23 12:37:37;;;;;;;;;;;22.90;99.90;;;;;;5085411;28;19985;-72
2022/05/23 12:40:03;;;;;;;;;;;22.80;99.90;;;;;;5070171;28;19924;-72
2022/05/23 12:42:47;;;;;;;;;;;22.80;99.90;;;;;;5070584;28;19935;-72
2022/05/23 12:45:22;;;;;;;;;;;22.70;99.90;;;;;;5070463;28;19942;-72
2022/05/23 12:47:55;;;;;;;;;;;22.70;99.90;;;;;;5070919;28;19927;-72
2022/05/23 12:50:20;;;;;;;;;;;22.60;99.90;;;;;;5103555;28;19920;-72
2022/05/23 12:53:18;;;;;;;;;;;22.70;99.90;;;;;;5053346;28;19927;-72
2022/05/23 12:56:16;;;;;;;;;;;22.70;99.90;;;;;;5052999;28;19921;-72
2022/05/23 12:58:51;;;;;;;;;;;22.60;99.90;;;;;;5047407;28;20333;-72
2022/05/23 13:01:21;;;;;;;;;;;22.50;99.90;;;;;;5104991;27;19920;-72
2022/05/23 13:03:52;;;;;;;;;;;22.50;99.90;;;;;;5087130;28;20371;-72
2022/05/23 13:06:22;;;;;;;;;;;22.50;99.90;;;;;;5086918;28;19928;-72
2022/05/23 13:08:47;;;;;;;;;;;22.50;99.90;;;;;;5081878;28;19930;-72
2022/05/23 13:11:25;;;;;;;;;;;22.50;99.90;;;;;;5104304;28;19920;-72
2022/05/23 13:13:51;;;;;;;;;;;22.60;99.90;;;;;;5106090;28;19943;-72
2022/05/23 13:16:22;;;;;;;;;;;22.60;99.90;;;;;;5090467;28;19920;-72
2022/05/23 13:24:48;;;;;;;;;;;22.80;99.90;;;;;;5075055;28;19943;-71
2022/05/23 13:27:04;;;;;;;;;;;22.80;99.90;;;;;;5069460;28;19920;-72
2022/05/23 13:29:31;;;;;;;;;;;22.90;99.90;;;;;;5103019;28;19920;-71
2022/05/23 13:31:58;;;;;;;;;;;22.90;99.90;;;;;;5103184;28;19921;-71
2022/05/23 13:34:23;;;;;;;;;;;23.00;99.90;;;;;;5103279;28;19925;-71
2022/05/23 13:36:49;;;;;;;;;;;23.00;99.90;;;;;;5075865;28;19920;-71
2022/05/23 13:39:15;;;;;;;;;;;23.10;99.90;;;;;;5123557;28;19920;-72
2022/05/23 13:41:41;;;;;;;;;;;23.20;99.90;;;;;;5074186;28;19924;-71
2022/05/23 13:44:07;;;;;;;;;;;23.30;99.90;;;;;;5070187;28;19924;-72
2022/05/23 13:46:38;;;;;;;;;;;23.30;99.90;;;;;;5102923;28;19920;-71
2022/05/23 13:49:07;;;;;;;;;;;23.40;99.90;;;;;;5102594;28;19931;-71
2022/05/23 13:51:32;;;;;;;;;;;23.50;99.90;;;;;;5086498;28;19921;-71
2022/05/23 13:54:22;;;;;;;;;;;23.60;99.90;;;;;;5103715;28;20256;-70
2022/05/23 13:56:50;;;;;;;;;;;23.60;99.90;;;;;;5075499;28;20382;-71
2022/05/23 13:59:22;;;;;;;;;;;23.60;99.90;;;;;;5089444;28;20327;-71
2022/05/23 14:01:50;;;;;;;;;;;23.70;99.90;;;;;;5087523;28;19924;-72
2022/05/23 14:04:19;;;;;;;;;;;23.60;99.90;;;;;;5089153;28;19920;-72
2022/05/23 14:06:54;;;;;;;;;;;23.50;99.90;;;;;;5123871;28;19955;-72
2022/05/23 14:09:21;;;;;;;;;;;23.40;99.90;;;;;;5088668;28;19973;-72
2022/05/23 14:11:53;;;;;;;;;;;23.30;99.90;;;;;;5089783;28;19974;-72
2022/05/23 14:14:21;;;;;;;;;;;23.20;99.90;;;;;;5088204;28;19924;-73
2022/05/23 14:16:53;;;;;;;;;;;23.00;99.90;;;;;;5089547;28;19921;-73
2022/05/23 14:19:20;;;;;;;;;;;22.90;99.90;;;;;;5084160;28;20011;-72
2022/05/23 14:21:45;;;;;;;;;;;22.80;99.90;;;;;;5089217;28;19935;-72
2022/05/23 14:24:15;;;;;;;;;;;22.70;99.90;;;;;;5089437;28;19924;-72
2022/05/23 14:26:40;;;;;;;;;;;22.60;99.90;;;;;;5090245;28;19943;-73
2022/05/23 14:29:10;;;;;;;;;;;22.50;99.90;;;;;;5106171;28;19921;-71
2022/05/23 14:31:40;;;;;;;;;;;22.50;99.90;;;;;;5109052;27;19924;-72
2022/05/23 14:34:07;;;;;;;;;;;22.40;99.90;;;;;;5115855;27;19928;-72
2022/05/23 14:36:33;;;;;;;;;;;22.30;99.90;;;;;;5079080;28;19982;-71
2022/05/23 14:39:01;;;;;;;;;;;22.30;99.90;;;;;;5072223;28;19975;-72
2022/05/23 14:41:28;;;;;;;;;;;22.30;99.90;;;;;;5076075;28;20298;-72
2022/05/23 14:44:04;;;;;;;;;;;22.30;99.90;;;;;;5078478;28;19927;-72
2022/05/23 14:46:32;;;;;;;;;;;22.20;99.90;;;;;;5086774;28;20383;-73
2022/05/23 14:49:05;;;;;;;;;;;22.20;99.90;;;;;;5087123;28;20328;-72
2022/05/23 14:51:35;;;;;;;;;;;22.20;99.90;;;;;;5077444;28;19939;-73
2022/05/23 14:56:52;;;;;;;;;;;22.10;99.90;;;;;;5074638;28;19928;-72
2022/05/23 15:02:05;;;;;;;;;;;22.00;99.90;;;;;;5078200;28;19970;-72
2022/05/23 15:04:32;;;;;;;;;;;21.90;99.90;;;;;;5089627;28;19927;-72
2022/05/23 15:06:59;;;;;;;;;;;21.90;99.90;;;;;;5083568;28;19928;-73
2022/05/23 15:09:25;;;;;;;;;;;21.80;99.90;;;;;;5080055;28;19970;-72
2022/05/23 15:11:51;;;;;;;;;;;21.80;99.90;;;;;;5112384;28;19963;-71
2022/05/23 15:14:17;;;;;;;;;;;21.70;99.90;;;;;;5102231;28;19928;-72
2022/05/23 15:16:43;;;;;;;;;;;21.80;99.90;;;;;;5122654;27;19920;-72
2022/05/23 15:19:18;;;;;;;;;;;21.80;99.90;;;;;;5091183;28;20019;-72
2022/05/23 15:21:45;;;;;;;;;;;21.80;99.90;;;;;;5091529;28;19924;-72
2022/05/23 15:24:11;;;;;;;;;;;21.80;99.90;;;;;;5091645;28;19924;-72
2022/05/23 15:26:40;;;;;;;;;;;21.90;99.90;;;;;;5090907;28;19927;-72
2022/05/23 15:29:07;;;;;;;;;;;21.90;99.90;;;;;;5074433;28;19981;-72
2022/05/23 15:31:33;;;;;;;;;;;22.00;99.90;;;;;;5091154;28;20043;-71
2022/05/23 15:33:59;;;;;;;;;;;22.00;99.90;;;;;;5082801;28;20405;-71
2022/05/23 15:36:25;;;;;;;;;;;22.00;99.90;;;;;;5085755;28;20007;-72